Terminal Aerodrome Forecast
Issued by NWS

Home | Current Version | Previous Version | Text Only | Print | Product List | Glossary On
Versions: 1 2 3 4 5 6 7 8 9 10 11 12 13 14 15 16 17 18 19
000
FTUS41 KPBZ 261100
TAFAGC
TAF
KAGC 261125Z 2612/2712 00000KT 5SM BR BKN100
     FM261300 22008KT P6SM BKN060
     FM270200 22004KT P6SM VCSH BKN050=

USA.gov is the U.S. government's official web portal to all federal, state and local government web resources and services.